Terminal Aerodrome Forecast
Issued by NWS Oklahoma City, OK

Home | Current Version | Previous Version | Text Only | Print | Product List | Glossary On
Versions: 1 2 3 4 5 6 7 8 9 10 11 12 13 14 15 16 17 18 19 20 21 22 23
000
FTUS44 KOUN 212320
TAFOUN
TAF
KOUN 212320Z 2200/2224 01010KT P6SM OVC009
     FM220200 36010KT 5SM -FZDZ BR OVC006
     FM221400 03005KT 6SM -FZRA BR OVC007
     FM222100 VRB04KT 6SM -RA BR OVC008
      AMD NOT SKED=

USA.gov is the U.S. government's official web portal to all federal, state and local government web resources and services.